Time;durP1;ratioP1;P1;durP2;ratioP2;P2;SDS_P1;SDS_P2;PMS_P1;PMS_P2;Temp;Humidity;BMP_temperature;BMP_pressure;BME280_temperature;BME280_humidity;BME280_pressure;Samples;Min_cycle;Max_cycle;Signal;HPM_P1;HPM_P2
2023/01/16 00:01:18;;;;;;;8.55;5.13;;;24.00;99.90;;;;;;4937978;29;20055;-57
2023/01/16 00:03:44;;;;;;;9.73;5.32;;;24.00;99.90;;;;;;4937670;29;20434;-58
2023/01/16 00:06:10;;;;;;;10.02;4.97;;;24.00;99.90;;;;;;4937642;29;20108;-62
2023/01/16 00:08:35;;;;;;;8.55;5.32;;;23.90;99.90;;;;;;4938143;29;20031;-61
2023/01/16 00:11:23;;;;;;;10.32;5.47;;;23.90;99.90;;;;;;4937692;29;20392;-61
2023/01/16 00:13:48;;;;;;;;;;;23.90;99.90;;;;;;4938107;29;20024;-61
2023/01/16 00:16:14;;;;;;;8.38;5.20;;;23.90;99.90;;;;;;4937905;29;20253;-64
2023/01/16 00:18:41;;;;;;;8.73;4.65;;;23.90;99.90;;;;;;4937334;29;20043;-60
2023/01/16 00:21:07;;;;;;;8.40;5.18;;;23.80;99.90;;;;;;4937199;29;20034;-63
2023/01/16 00:23:33;;;;;;;7.05;4.40;;;23.80;99.90;;;;;;4937797;29;20028;-60
2023/01/16 00:25:58;;;;;;;8.57;5.00;;;23.80;99.90;;;;;;4937327;29;20035;-62
2023/01/16 00:28:24;;;;;;;8.00;4.50;;;23.80;99.90;;;;;;4937594;29;20446;-64
2023/01/16 00:30:50;;;;;;;7.38;4.68;;;23.80;99.90;;;;;;4937709;29;20381;-60
2023/01/16 00:33:17;;;;;;;9.10;5.00;;;23.80;99.90;;;;;;4937192;29;20396;-62
2023/01/16 00:35:43;;;;;;;;;;;23.70;99.90;;;;;;4937895;29;20020;-66
2023/01/16 00:38:09;;;;;;;5.50;4.43;;;23.70;99.90;;;;;;4937402;29;19907;-62
2023/01/16 00:40:35;;;;;;;4.93;3.58;;;23.70;99.90;;;;;;4936791;29;20161;-62
2023/01/16 00:43:00;;;;;;;7.15;4.80;;;23.70;99.90;;;;;;4935962;29;20043;-68
2023/01/16 00:45:26;;;;;;;7.80;4.10;;;23.70;99.90;;;;;;4937361;29;20034;-66
2023/01/16 00:47:52;;;;;;;5.20;4.22;;;23.70;99.90;;;;;;4936813;29;20518;-62
2023/01/16 00:50:18;;;;;;;5.35;4.30;;;23.60;99.90;;;;;;4937331;29;20103;-61
2023/01/16 00:52:43;;;;;;;5.68;4.18;;;23.60;99.90;;;;;;4937104;29;20045;-59
2023/01/16 00:55:09;;;;;;;6.47;4.38;;;23.60;99.90;;;;;;4937082;29;20042;-60
2023/01/16 00:57:35;;;;;;;7.57;4.25;;;23.60;99.90;;;;;;4936439;29;20040;-59
2023/01/16 01:00:01;;;;;;;5.38;3.90;;;23.60;99.90;;;;;;4937684;29;20042;-58
2023/01/16 01:02:26;;;;;;;6.20;4.45;;;23.50;99.90;;;;;;4936959;29;20035;-59
2023/01/16 01:04:52;;;;;;;5.85;4.07;;;23.50;99.90;;;;;;4936545;29;20032;-57
2023/01/16 01:07:18;;;;;;;6.07;3.53;;;23.50;99.90;;;;;;4955693;29;20035;-59
2023/01/16 01:09:43;;;;;;;4.57;3.80;;;23.50;99.90;;;;;;4954460;28;20028;-57
2023/01/16 01:12:09;;;;;;;4.30;3.67;;;23.50;99.90;;;;;;4955520;29;20376;-58
2023/01/16 01:14:35;;;;;;;4.82;3.55;;;23.50;99.90;;;;;;4955816;29;20024;-58
2023/01/16 01:17:01;;;;;;;6.90;3.97;;;23.50;99.90;;;;;;4955372;29;20106;-57
2023/01/16 01:19:26;;;;;;;6.55;3.38;;;23.40;99.90;;;;;;4955138;29;20030;-60
2023/01/16 01:21:52;;;;;;;5.47;3.50;;;23.40;99.90;;;;;;4955478;29;20067;-59
2023/01/16 01:24:18;;;;;;;5.68;3.38;;;23.40;99.90;;;;;;4954662;29;20027;-58
2023/01/16 01:26:44;;;;;;;6.90;3.85;;;23.30;99.90;;;;;;4955365;29;20031;-58
2023/01/16 01:29:10;;;;;;;6.47;3.97;;;23.30;99.90;;;;;;4955649;29;20023;-58
2023/01/16 01:31:36;;;;;;;7.65;3.25;;;23.30;99.90;;;;;;4955373;29;20098;-58
2023/01/16 01:34:01;;;;;;;5.53;3.38;;;23.30;99.90;;;;;;4954282;28;20087;-58
2023/01/16 01:36:27;;;;;;;4.60;3.53;;;23.30;99.90;;;;;;4953803;29;20039;-59
2023/01/16 01:38:53;;;;;;;8.00;2.92;;;23.20;99.90;;;;;;4954187;29;20020;-57
2023/01/16 01:41:19;;;;;;;6.28;3.45;;;23.20;99.90;;;;;;4954232;29;20027;-58
2023/01/16 01:43:48;;;;;;;4.93;3.42;;;23.20;99.90;;;;;;4955564;29;20023;-59
2023/01/16 01:46:41;;;;;;;6.45;3.30;;;23.20;99.90;;;;;;4938771;29;20027;-58
2023/01/16 01:49:23;;;;;;;5.03;2.88;;;23.20;99.90;;;;;;4955890;29;20066;-58
2023/01/16 01:51:51;;;;;;;5.70;2.88;;;23.20;99.90;;;;;;4955480;29;20498;-58
2023/01/16 01:54:25;;;;;;;3.90;3.17;;;23.10;99.90;;;;;;4955605;29;20437;-58
2023/01/16 01:57:21;;;;;;;5.40;2.88;;;23.10;99.90;;;;;;4955389;29;20078;-57
2023/01/16 02:00:11;;;;;;;5.15;2.80;;;23.10;99.90;;;;;;4948764;29;20035;-57
2023/01/16 02:02:59;;;;;;;4.60;3.10;;;23.10;99.90;;;;;;4955631;28;20086;-59
2023/01/16 02:05:49;;;;;;;3.97;2.72;;;23.00;99.90;;;;;;4955219;29;20034;-56
2023/01/16 02:08:18;;;;;;;4.15;2.60;;;23.00;99.90;;;;;;4946011;29;20448;-58
2023/01/16 02:11:25;;;;;;;4.28;2.33;;;23.00;99.90;;;;;;4955101;29;20531;-57
2023/01/16 02:14:04;;;;;;;4.57;2.20;;;23.00;99.90;;;;;;4955040;29;20031;-57
2023/01/16 02:19:40;;;;;;;4.10;2.67;;;22.90;99.90;;;;;;4955329;29;20155;-59
2023/01/16 02:22:24;;;;;;;6.32;2.58;;;22.90;99.90;;;;;;4955098;29;20024;-60
2023/01/16 02:25:01;;;;;;;3.28;2.53;;;22.80;99.90;;;;;;4954979;29;20027;-60
2023/01/16 02:27:52;;;;;;;2.58;2.20;;;22.80;99.90;;;;;;4954807;29;20427;-59
2023/01/16 02:30:20;;;;;;;4.72;2.40;;;22.80;99.90;;;;;;4954800;29;20437;-59
2023/01/16 02:33:09;;;;;;;3.58;2.42;;;22.80;99.90;;;;;;4954815;29;20023;-59
2023/01/16 02:35:35;;;;;;;3.95;2.58;;;22.80;99.90;;;;;;4954992;29;20015;-59
2023/01/16 02:38:34;;;;;;;2.97;2.28;;;22.80;99.90;;;;;;4954679;29;20026;-59
2023/01/16 02:41:06;;;;;;;2.45;1.80;;;22.70;99.90;;;;;;4944229;29;20055;-60
2023/01/16 02:43:55;;;;;;;4.47;2.05;;;22.70;99.90;;;;;;4954917;29;20420;-59
2023/01/16 02:46:48;;;;;;;3.10;1.85;;;22.70;99.90;;;;;;4954463;29;20102;-59
2023/01/16 02:49:20;;;;;;;2.35;1.98;;;22.70;99.90;;;;;;4953918;29;20090;-59
2023/01/16 02:52:03;;;;;;;2.78;2.10;;;22.60;99.90;;;;;;4954653;29;20038;-59
2023/01/16 02:54:41;;;;;;;2.97;2.42;;;22.60;99.90;;;;;;4954433;29;20417;-57
2023/01/16 02:57:14;;;;;;;3.50;2.20;;;22.60;99.90;;;;;;4954721;29;20035;-58
2023/01/16 02:59:41;;;;;;;3.50;1.90;;;22.60;99.90;;;;;;4966756;23;20059;-53
2023/01/16 03:02:08;;;;;;;2.03;1.80;;;22.60;99.90;;;;;;4954627;29;20119;-52
2023/01/16 03:04:39;;;;;;;3.13;2.03;;;22.60;99.90;;;;;;4954234;29;20019;-52
2023/01/16 03:07:42;;;;;;;4.60;2.08;;;22.50;99.90;;;;;;4954259;29;20047;-52
2023/01/16 03:10:22;;;;;;;3.13;1.67;;;22.50;99.90;;;;;;4954511;29;20023;-52
2023/01/16 03:12:57;;;;;;;1.52;1.40;;;22.50;99.90;;;;;;4954161;29;20109;-52
2023/01/16 03:15:50;;;;;;;4.03;2.33;;;22.50;99.90;;;;;;4954302;29;20029;-52
2023/01/16 03:18:36;;;;;;;3.90;1.85;;;22.40;99.90;;;;;;4954112;29;20491;-53
2023/01/16 03:21:11;;;;;;;2.40;1.95;;;22.40;99.90;;;;;;4954131;29;20042;-53
2023/01/16 03:23:53;;;;;;;3.10;1.88;;;22.40;99.90;;;;;;4954246;29;20023;-52
2023/01/16 03:26:45;;;;;;;3.22;2.03;;;22.40;99.90;;;;;;4953969;29;20046;-51
2023/01/16 03:29:27;;;;;;;2.20;1.67;;;22.40;99.90;;;;;;4954284;29;20026;-55
2023/01/16 03:32:06;;;;;;;2.15;1.40;;;22.40;99.90;;;;;;4954361;28;20034;-51
2023/01/16 03:34:39;;;;;;;3.45;1.25;;;22.30;99.90;;;;;;4958244;29;20034;-50
2023/01/16 03:37:31;;;;;;;1.52;1.33;;;22.30;99.90;;;;;;4957995;29;20034;-50
2023/01/16 03:40:03;;;;;;;2.58;1.77;;;22.30;99.90;;;;;;4957821;28;20348;-51
2023/01/16 03:42:38;;;;;;;1.73;1.20;;;22.30;99.90;;;;;;4957812;29;20054;-52
2023/01/16 03:45:13;;;;;;;2.42;1.75;;;22.30;99.90;;;;;;4957811;29;20428;-51
2023/01/16 03:47:48;;;;;;;2.10;1.35;;;22.20;99.90;;;;;;4958016;29;20042;-51
2023/01/16 03:50:17;;;;;;;2.30;1.40;;;22.20;99.90;;;;;;4956437;29;20027;-51
2023/01/16 03:52:51;;;;;;;3.00;1.60;;;22.20;99.90;;;;;;4956471;28;20116;-51
2023/01/16 03:55:26;;;;;;;2.50;1.27;;;22.20;99.90;;;;;;4957831;29;20036;-51
2023/01/16 03:58:02;;;;;;;2.15;1.30;;;22.20;99.90;;;;;;4957600;29;20050;-50
2023/01/16 04:00:39;;;;;;;1.58;1.05;;;22.10;99.90;;;;;;4969577;23;20151;-57
2023/01/16 04:03:10;;;;;;;2.10;1.33;;;22.10;99.90;;;;;;4957458;29;20042;-57
2023/01/16 04:05:50;;;;;;;3.60;1.35;;;22.10;99.90;;;;;;4957409;29;20551;-57
2023/01/16 04:08:22;;;;;;;2.45;1.35;;;22.10;99.90;;;;;;4957375;29;20392;-56
2023/01/16 04:10:51;;;;;;;1.90;1.63;;;22.10;99.90;;;;;;4957302;29;20015;-57
2023/01/16 04:13:21;;;;;;;1.88;1.25;;;22.10;99.90;;;;;;4957235;29;20058;-57
2023/01/16 04:15:51;;;;;;;2.05;1.30;;;22.00;99.90;;;;;;4957301;29;20321;-57
2023/01/16 04:18:17;;;;;;;1.02;0.93;;;22.00;99.90;;;;;;4957277;29;20089;-59
2023/01/16 04:20:46;;;;;;;1.60;1.27;;;22.00;99.90;;;;;;4957401;29;20023;-59
2023/01/16 04:23:13;;;;;;;2.15;1.40;;;22.00;99.90;;;;;;4957462;29;20038;-58
2023/01/16 04:25:39;;;;;;;2.08;1.35;;;21.90;99.90;;;;;;4957015;29;20389;-57
2023/01/16 04:28:05;;;;;;;1.73;1.35;;;21.90;99.90;;;;;;4957072;29;20376;-57
2023/01/16 04:30:31;;;;;;;2.55;1.48;;;21.90;99.90;;;;;;4955806;29;20112;-58
2023/01/16 04:33:01;;;;;;;1.77;1.20;;;21.90;99.90;;;;;;4957067;29;20038;-58
2023/01/16 04:35:27;;;;;;;1.85;1.42;;;21.90;99.90;;;;;;4955700;28;20031;-58
2023/01/16 04:37:53;;;;;;;2.08;1.27;;;21.90;99.90;;;;;;4956967;29;20102;-58
2023/01/16 04:40:19;;;;;;;2.00;1.25;;;21.90;99.90;;;;;;4956842;29;20480;-58
2023/01/16 04:42:44;;;;;;;1.45;1.17;;;21.90;99.90;;;;;;4957093;28;20431;-58
2023/01/16 04:45:10;;;;;;;2.40;1.30;;;21.80;99.90;;;;;;4956806;29;20439;-57
2023/01/16 04:47:36;;;;;;;4.43;1.58;;;21.80;99.90;;;;;;4953230;29;20408;-58
2023/01/16 04:50:02;;;;;;;1.77;1.58;;;21.80;99.90;;;;;;4955189;29;20064;-57
2023/01/16 04:52:28;;;;;;;2.88;1.30;;;21.80;99.90;;;;;;4956089;29;20031;-58
2023/01/16 04:54:53;;;;;;;2.10;1.17;;;21.80;99.90;;;;;;4938861;29;20019;-57
2023/01/16 04:57:19;;;;;;;2.35;1.23;;;21.70;99.90;;;;;;4956259;29;20106;-57
2023/01/16 04:59:45;;;;;;;2.53;1.27;;;21.70;99.90;;;;;;4968374;23;20047;-51
2023/01/16 05:02:11;;;;;;;1.90;1.15;;;21.70;99.90;;;;;;4956299;29;20159;-51
2023/01/16 05:04:36;;;;;;;2.30;1.42;;;21.70;99.90;;;;;;4956036;29;20376;-52
2023/01/16 05:07:02;;;;;;;1.52;1.27;;;21.70;99.90;;;;;;4956093;29;20043;-51
2023/01/16 05:09:28;;;;;;;2.28;1.60;;;21.60;99.90;;;;;;4938995;29;20034;-52
2023/01/16 05:11:54;;;;;;;2.42;1.55;;;21.60;99.90;;;;;;4955811;29;20050;-51
2023/01/16 05:14:20;;;;;;;2.03;1.40;;;21.60;99.90;;;;;;4956106;29;20037;-51
2023/01/16 05:16:45;;;;;;;2.30;1.27;;;21.60;99.90;;;;;;4955939;29;20030;-51
2023/01/16 05:19:11;;;;;;;2.22;1.35;;;21.60;99.90;;;;;;4955856;29;20030;-51
2023/01/16 05:21:37;;;;;;;2.38;1.20;;;21.60;99.90;;;;;;4955838;29;20114;-52
2023/01/16 05:24:04;;;;;;;2.95;1.30;;;21.60;99.90;;;;;;4954250;28;20070;-52
2023/01/16 05:26:30;;;;;;;2.22;1.63;;;21.50;99.90;;;;;;4955575;29;20506;-51
2023/01/16 05:28:55;;;;;;;2.47;1.40;;;21.50;99.90;;;;;;4955784;29;20031;-52
2023/01/16 05:31:21;;;;;;;2.13;1.70;;;21.50;99.90;;;;;;4954633;28;20119;-52
2023/01/16 05:33:47;;;;;;;2.38;1.63;;;21.50;99.90;;;;;;4954516;28;20039;-50
2023/01/16 05:36:13;;;;;;;2.55;1.75;;;21.50;99.90;;;;;;4955498;29;20099;-50
2023/01/16 05:38:38;;;;;;;3.05;1.70;;;21.50;99.90;;;;;;4955441;29;20027;-50
2023/01/16 05:41:04;;;;;;;2.97;1.60;;;21.50;99.90;;;;;;4955234;29;20031;-51
2023/01/16 05:43:30;;;;;;;3.67;1.65;;;21.50;99.90;;;;;;4955493;29;20023;-49
2023/01/16 05:45:56;;;;;;;2.15;1.55;;;21.50;99.90;;;;;;4955498;29;20051;-49
2023/01/16 05:48:23;;;;;;;2.30;1.65;;;21.40;99.90;;;;;;4955299;29;20452;-49
2023/01/16 05:50:50;;;;;;;4.47;1.80;;;21.40;99.90;;;;;;4955254;29;20111;-49
2023/01/16 05:53:16;;;;;;;2.47;1.88;;;21.40;99.90;;;;;;4955237;29;20143;-49
2023/01/16 05:55:44;;;;;;;5.00;1.75;;;21.40;99.90;;;;;;4954310;28;20492;-49
2023/01/16 05:58:11;;;;;;;2.70;2.05;;;21.40;99.90;;;;;;4938446;29;20176;-48
2023/01/16 06:00:38;;;;;;;3.58;1.77;;;21.40;99.90;;;;;;4954879;29;20075;-49
2023/01/16 06:03:05;;;;;;;4.90;2.05;;;21.40;99.90;;;;;;4954918;29;20024;-48
2023/01/16 06:05:31;;;;;;;2.67;1.98;;;21.40;99.90;;;;;;4954941;29;20027;-48
2023/01/16 06:07:57;;;;;;;3.00;1.90;;;21.30;99.90;;;;;;4954888;29;20476;-49
2023/01/16 06:10:24;;;;;;;4.07;2.13;;;21.30;99.90;;;;;;4954749;29;20489;-48
2023/01/16 06:12:50;;;;;;;4.85;1.95;;;21.30;99.90;;;;;;4954906;29;20476;-51
2023/01/16 06:15:15;;;;;;;3.38;1.80;;;21.30;99.90;;;;;;4954934;29;20038;-51
2023/01/16 06:17:41;;;;;;;3.58;2.28;;;21.30;99.90;;;;;;4954736;29;20031;-51
2023/01/16 06:20:08;;;;;;;2.80;1.80;;;21.30;99.90;;;;;;4954657;29;20038;-51
2023/01/16 06:22:34;;;;;;;3.85;2.00;;;21.20;99.90;;;;;;4954714;29;20143;-51
2023/01/16 06:25:00;;;;;;;3.63;1.90;;;21.30;99.90;;;;;;4954497;29;20136;-51
2023/01/16 06:27:26;;;;;;;3.35;2.00;;;21.20;99.90;;;;;;4954586;29;20035;-50
2023/01/16 06:29:51;;;;;;;3.17;2.10;;;21.20;99.90;;;;;;4954603;29;20427;-48
2023/01/16 06:32:17;;;;;;;3.75;1.80;;;21.20;99.90;;;;;;4954530;29;20400;-50
2023/01/16 06:34:43;;;;;;;4.88;2.53;;;21.20;99.90;;;;;;4937514;29;20383;-52
2023/01/16 06:37:10;;;;;;;4.28;2.65;;;21.20;99.90;;;;;;4954352;29;20050;-51
2023/01/16 06:39:35;;;;;;;4.53;2.58;;;21.20;99.90;;;;;;4953063;28;20024;-50
2023/01/16 06:42:04;;;;;;;6.32;2.42;;;21.10;99.90;;;;;;4954248;29;20034;-52
2023/01/16 06:44:31;;;;;;;4.30;3.25;;;21.10;99.90;;;;;;4954423;29;20031;-53
2023/01/16 06:46:57;;;;;;;6.05;3.80;;;21.10;99.90;;;;;;4953925;29;20098;-50
2023/01/16 06:49:22;;;;;;;6.28;3.30;;;21.10;99.90;;;;;;4954285;29;20106;-51
2023/01/16 06:51:48;;;;;;;5.35;3.15;;;21.10;99.90;;;;;;4954161;29;20054;-51
2023/01/16 06:54:14;;;;;;;8.55;4.75;;;21.10;99.90;;;;;;4954337;29;20515;-51
2023/01/16 06:56:40;;;;;;;6.28;3.50;;;21.10;99.90;;;;;;4954185;29;20031;-51
2023/01/16 06:59:05;;;;;;;5.97;3.70;;;21.00;99.90;;;;;;4954132;29;20472;-51
2023/01/16 07:01:31;;;;;;;6.70;4.00;;;21.00;99.90;;;;;;4954016;29;20408;-52
2023/01/16 07:03:57;;;;;;;6.90;4.15;;;21.00;99.90;;;;;;4953889;29;20016;-52
2023/01/16 07:06:23;;;;;;;7.57;4.07;;;21.00;99.90;;;;;;4953473;28;20043;-51
2023/01/16 07:08:50;;;;;;;6.43;3.97;;;21.00;99.90;;;;;;4953436;29;20055;-51
2023/01/16 07:11:17;;;;;;;6.32;4.25;;;21.00;99.90;;;;;;4953973;29;20587;-51
2023/01/16 07:13:43;;;;;;;7.03;4.45;;;21.00;99.90;;;;;;4953829;29;20035;-51
2023/01/16 07:24:35;;;;;;;5.80;3.75;;;20.90;99.90;;;;;;4943720;29;20530;-52
2023/01/16 07:27:04;;;;;;;8.27;3.78;;;20.90;99.90;;;;;;4953524;29;20130;-51
2023/01/16 07:29:32;;;;;;;6.00;3.85;;;20.90;99.90;;;;;;4953707;29;20047;-52
2023/01/16 07:32:00;;;;;;;8.00;4.03;;;20.80;99.90;;;;;;4953595;29;20027;-51
2023/01/16 07:34:26;;;;;;;7.10;4.53;;;20.80;99.90;;;;;;4953837;29;20024;-51
2023/01/16 07:36:52;;;;;;;8.40;4.75;;;20.80;99.90;;;;;;4953455;29;20038;-51
2023/01/16 07:39:18;;;;;;;6.07;4.10;;;20.80;99.90;;;;;;4953776;29;20032;-51
2023/01/16 07:41:44;;;;;;;9.88;4.55;;;20.80;99.90;;;;;;4953477;29;20086;-52
2023/01/16 07:44:10;;;;;;;8.82;4.10;;;20.80;99.90;;;;;;4953512;29;20070;-53
2023/01/16 07:46:36;;;;;;;8.60;4.82;;;20.80;99.90;;;;;;4953322;29;20090;-52
2023/01/16 07:49:01;;;;;;;6.25;4.03;;;20.80;99.90;;;;;;4940656;29;20023;-52
2023/01/16 07:51:27;;;;;;;6.65;3.30;;;20.80;99.90;;;;;;4953489;29;20487;-51
2023/01/16 07:53:53;;;;;;;8.00;4.63;;;20.80;99.90;;;;;;4953154;29;20027;-51
2023/01/16 07:56:19;;;;;;;6.60;4.10;;;20.80;99.90;;;;;;4953542;29;20102;-51
2023/01/16 07:58:45;;;;;;;8.25;4.72;;;20.80;99.90;;;;;;4936092;29;20019;-52
2023/01/16 08:01:11;;;;;;;8.07;4.47;;;20.80;99.90;;;;;;4953160;29;20478;-52
2023/01/16 08:03:37;;;;;;;6.93;4.05;;;20.80;99.90;;;;;;4953275;29;20460;-52
2023/01/16 08:06:04;;;;;;;7.43;4.50;;;20.80;99.90;;;;;;4935921;29;20024;-50
2023/01/16 08:08:29;;;;;;;7.10;4.75;;;20.90;99.90;;;;;;4953194;29;20030;-51
2023/01/16 08:10:56;;;;;;;8.77;4.30;;;20.90;99.90;;;;;;4953206;29;20024;-52
2023/01/16 08:13:23;;;;;;;8.43;3.87;;;20.90;99.90;;;;;;4953569;29;20118;-50
2023/01/16 08:15:50;;;;;;;7.15;4.13;;;20.90;99.90;;;;;;4953687;29;20268;-50
2023/01/16 08:18:17;;;;;;;6.55;3.55;;;21.00;99.90;;;;;;4953983;28;20070;-50
2023/01/16 08:20:44;;;;;;;8.68;4.57;;;21.00;99.90;;;;;;4956920;29;20122;-52
2023/01/16 08:23:11;;;;;;;6.53;3.97;;;21.00;99.90;;;;;;4956816;29;20058;-51
2023/01/16 08:25:37;;;;;;;8.00;3.77;;;21.10;99.90;;;;;;4956598;29;20028;-50
2023/01/16 08:28:03;;;;;;;6.35;3.72;;;21.10;99.90;;;;;;4956552;29;20308;-51
2023/01/16 08:30:29;;;;;;;9.98;3.80;;;21.10;99.90;;;;;;4956507;29;20459;-50
2023/01/16 08:32:59;;;;;;;6.00;3.00;;;21.10;99.90;;;;;;4955275;28;20039;-50
2023/01/16 08:35:25;;;;;;;5.32;3.58;;;21.10;99.90;;;;;;4938453;29;20030;-51
2023/01/16 08:37:51;;;;;;;6.80;4.18;;;21.10;99.90;;;;;;4937706;29;20107;-50
2023/01/16 08:40:18;;;;;;;8.93;4.07;;;21.10;99.90;;;;;;4955430;29;20118;-50
2023/01/16 08:51:27;;;;;;;4.93;3.42;;;21.20;99.90;;;;;;4956632;29;20519;-52
2023/01/16 08:53:56;;;;;;;9.32;4.30;;;21.20;99.90;;;;;;4954836;28;20376;-52
2023/01/16 08:56:22;;;;;;;4.65;3.35;;;21.30;99.90;;;;;;4956332;29;20020;-52
2023/01/16 08:58:48;;;;;;;5.95;3.65;;;21.30;99.90;;;;;;4955853;29;20027;-52
2023/01/16 09:01:15;;;;;;;5.55;3.30;;;21.40;99.90;;;;;;4955883;29;20047;-51
2023/01/16 09:03:41;;;;;;;5.55;3.78;;;21.40;99.90;;;;;;4955746;29;20037;-50
2023/01/16 09:06:07;;;;;;;7.18;3.60;;;21.40;99.90;;;;;;4955784;29;20090;-49
2023/01/16 09:08:33;;;;;;;9.25;3.28;;;21.40;99.90;;;;;;4955623;29;20530;-52
2023/01/16 09:13:49;;;;;;;6.75;3.47;;;21.50;99.90;;;;;;4955966;29;20041;-49
2023/01/16 09:16:19;;;;;;;5.75;3.17;;;21.60;99.90;;;;;;4955709;29;20106;-51
2023/01/16 09:18:46;;;;;;;6.47;2.90;;;21.60;99.90;;;;;;4955594;29;20019;-50
2023/01/16 09:21:11;;;;;;;5.95;2.88;;;21.60;99.90;;;;;;4954474;29;20034;-49
2023/01/16 09:23:37;;;;;;;4.07;2.85;;;21.60;99.90;;;;;;4954861;29;20019;-49
2023/01/16 09:26:03;;;;;;;6.55;3.13;;;21.70;99.90;;;;;;4954491;29;20035;-50
2023/01/16 09:28:29;;;;;;;8.13;3.28;;;21.70;99.90;;;;;;4954641;29;20033;-51
2023/01/16 09:30:55;;;;;;;14.98;3.50;;;21.70;99.90;;;;;;4954032;28;20023;-51
2023/01/16 09:33:21;;;;;;;6.15;2.80;;;21.80;99.90;;;;;;4954560;29;20035;-51
2023/01/16 09:35:46;;;;;;;8.15;3.35;;;21.80;99.90;;;;;;4955275;29;20484;-51
2023/01/16 09:38:12;;;;;;;6.30;3.13;;;21.80;99.90;;;;;;4954559;29;20043;-51
2023/01/16 09:40:38;;;;;;;6.85;3.53;;;21.80;99.90;;;;;;4954643;29;20053;-52
2023/01/16 09:43:37;;;;;;;10.95;3.25;;;21.90;99.90;;;;;;4954030;29;20151;-50
2023/01/16 09:46:16;;;;;;;6.35;3.05;;;21.90;99.90;;;;;;4949298;29;20031;-51
2023/01/16 09:48:45;;;;;;;4.80;3.00;;;21.90;99.90;;;;;;4955102;29;20051;-51
2023/01/16 09:51:20;;;;;;;9.02;3.67;;;22.00;99.90;;;;;;4954842;29;20035;-51
2023/01/16 09:59:40;;;;;;;8.15;3.95;;;22.10;99.90;;;;;;4943304;29;20065;-52
2023/01/16 10:02:11;;;;;;;6.47;3.25;;;22.10;99.90;;;;;;4954708;29;20058;-50
2023/01/16 10:04:37;;;;;;;6.72;3.13;;;22.10;99.90;;;;;;4955062;29;20015;-51
2023/01/16 10:07:26;;;;;;;5.63;3.95;;;22.20;99.90;;;;;;4954672;29;20410;-51
2023/01/16 10:10:10;;;;;;;6.18;3.88;;;22.20;99.90;;;;;;4941297;29;20041;-50
2023/01/16 10:12:39;;;;;;;10.82;3.97;;;22.20;99.90;;;;;;4954315;29;20031;-51
2023/01/16 10:15:20;;;;;;;11.15;5.30;;;22.20;99.90;;;;;;4954460;29;20050;-50
2023/01/16 10:18:02;;;;;;;7.35;4.18;;;22.30;99.90;;;;;;4936337;29;20042;-51
